Time;durP1;ratioP1;P1;durP2;ratioP2;P2;SDS_P1;SDS_P2;PMS_P1;PMS_P2;Temp;Humidity;BMP_temperature;BMP_pressure;BME280_temperature;BME280_humidity;BME280_pressure;Samples;Min_cycle;Max_cycle;Signal;HPM_P1;HPM_P2
2022/05/26 00:01:09;;;;;;;;;;;16.60;99.90;;;;;;4591610;19;19932;-25
2022/05/26 00:02:40;;;;;;;;;;;16.60;99.90;;;;;;4594164;19;19915;-24
2022/05/26 00:04:11;;;;;;;;;;;16.60;99.90;;;;;;4593333;19;19918;-25
2022/05/26 00:05:42;;;;;;;;;;;16.60;99.90;;;;;;4593190;19;19915;-24
2022/05/26 00:07:12;;;;;;;;;;;16.60;99.90;;;;;;4593336;19;19928;-24
2022/05/26 00:08:44;;;;;;;;;;;16.60;99.90;;;;;;4592835;19;19937;-24
2022/05/26 00:10:15;;;;;;;;;;;16.60;99.90;;;;;;4591875;19;19981;-24
2022/05/26 00:11:46;;;;;;;;;;;16.60;99.90;;;;;;4591457;19;20261;-25
2022/05/26 00:13:17;;;;;;;;;;;16.60;99.90;;;;;;4593106;19;20317;-25
2022/05/26 00:14:48;;;;;;;;;;;16.60;99.90;;;;;;4593227;19;19957;-24
2022/05/26 00:16:19;;;;;;;;;;;16.60;99.90;;;;;;4592609;19;20329;-24
2022/05/26 00:17:50;;;;;;;;;;;16.60;99.90;;;;;;4592068;19;19936;-24
2022/05/26 00:19:21;;;;;;;;;;;16.60;99.90;;;;;;4593199;19;19931;-24
2022/05/26 00:20:52;;;;;;;;;;;16.50;99.90;;;;;;4591755;19;19914;-24
2022/05/26 00:22:22;;;;;;;;;;;16.50;99.90;;;;;;4591308;19;19919;-25
2022/05/26 00:23:55;;;;;;;;;;;16.50;99.90;;;;;;4592318;19;19954;-24
2022/05/26 00:25:26;;;;;;;;;;;16.50;99.90;;;;;;4593588;19;19914;-24
2022/05/26 00:26:57;;;;;;;;;;;16.50;99.90;;;;;;4592318;19;19979;-24
2022/05/26 00:28:28;;;;;;;;;;;16.50;99.90;;;;;;4591538;19;19938;-24
2022/05/26 00:29:58;;;;;;;;;;;16.60;99.90;;;;;;4591862;19;20310;-24
2022/05/26 00:31:30;;;;;;;;;;;16.60;99.90;;;;;;4591768;19;19995;-24
2022/05/26 00:33:01;;;;;;;;;;;16.50;99.90;;;;;;4591924;19;20350;-25
2022/05/26 00:34:32;;;;;;;;;;;16.50;99.90;;;;;;4592634;19;19922;-24
2022/05/26 00:36:07;;;;;;;;;;;16.60;99.90;;;;;;4593200;19;19966;-24
2022/05/26 00:37:37;;;;;;;;;;;16.60;99.90;;;;;;4592500;19;19919;-24
2022/05/26 00:39:12;;;;;;;;;;;16.60;99.90;;;;;;4592690;19;19922;-25
2022/05/26 00:40:44;;;;;;;;;;;16.60;99.90;;;;;;4591111;19;20352;-24
2022/05/26 00:42:15;;;;;;;;;;;16.60;99.90;;;;;;4592592;19;19927;-24
2022/05/26 00:43:46;;;;;;;;;;;16.50;99.90;;;;;;4594581;19;19915;-25
2022/05/26 00:45:17;;;;;;;;;;;16.50;99.90;;;;;;4592564;19;19922;-24
2022/05/26 00:46:57;;;;;;;;;;;16.50;99.90;;;;;;4592518;19;19915;-25
2022/05/26 00:48:29;;;;;;;;;;;16.50;99.90;;;;;;4593021;19;19970;-24
2022/05/26 00:50:07;;;;;;;;;;;16.50;99.90;;;;;;4592041;19;19922;-24
2022/05/26 00:51:38;;;;;;;;;;;16.50;99.90;;;;;;4591231;19;19931;-24
2022/05/26 00:53:13;;;;;;;;;;;16.50;99.90;;;;;;4591475;19;19922;-24
2022/05/26 00:54:45;;;;;;;;;;;16.50;99.90;;;;;;4592400;19;19939;-24
2022/05/26 00:56:17;;;;;;;;;;;16.50;99.90;;;;;;4591620;19;19922;-24
2022/05/26 00:57:56;;;;;;;;;;;16.50;99.90;;;;;;4591135;19;19939;-24
2022/05/26 00:59:32;;;;;;;;;;;16.50;99.90;;;;;;4591345;19;19915;-24
2022/05/26 01:01:03;;;;;;;;;;;16.50;99.90;;;;;;4592193;19;19970;-24
2022/05/26 01:02:34;;;;;;;;;;;16.50;99.90;;;;;;4590613;19;19976;-24
2022/05/26 01:04:07;;;;;;;;;;;16.50;99.90;;;;;;4591735;19;20018;-24
2022/05/26 01:05:52;;;;;;;;;;;16.50;99.90;;;;;;4590517;19;19972;-24
2022/05/26 01:07:23;;;;;;;;;;;16.50;99.90;;;;;;4591970;19;19911;-24
2022/05/26 01:08:55;;;;;;;;;;;16.50;99.90;;;;;;4591712;19;19935;-24
2022/05/26 01:10:26;;;;;;;;;;;16.50;99.90;;;;;;4591633;19;20251;-24
2022/05/26 01:11:57;;;;;;;;;;;16.50;99.90;;;;;;4591083;19;19918;-24
2022/05/26 01:13:28;;;;;;;;;;;16.50;99.90;;;;;;4592356;19;19918;-23
2022/05/26 01:15:01;;;;;;;;;;;16.50;99.90;;;;;;4590557;19;19938;-24
2022/05/26 01:16:44;;;;;;;;;;;16.50;99.90;;;;;;4590438;19;20303;-24
2022/05/26 01:18:16;;;;;;;;;;;16.50;99.90;;;;;;4589450;19;20406;-24
2022/05/26 01:19:53;;;;;;;;;;;16.50;99.90;;;;;;4591438;19;19985;-24
2022/05/26 01:21:33;;;;;;;;;;;16.50;99.90;;;;;;4590443;19;19918;-24
2022/05/26 01:23:11;;;;;;;;;;;16.50;99.90;;;;;;4591140;19;19979;-25
2022/05/26 01:24:47;;;;;;;;;;;16.50;99.90;;;;;;4591239;19;19978;-25
2022/05/26 01:26:49;;;;;;;;;;;16.50;99.90;;;;;;4590861;19;19926;-24
2022/05/26 01:28:23;;;;;;;;;;;16.50;99.90;;;;;;4589573;19;19935;-24
2022/05/26 01:29:57;;;;;;;;;;;16.50;99.90;;;;;;4589666;19;20312;-24
2022/05/26 01:31:43;;;;;;;;;;;16.50;99.90;;;;;;4587184;19;20293;-24
2022/05/26 01:33:16;;;;;;;;;;;16.50;99.90;;;;;;4589350;19;19915;-24
2022/05/26 01:35:04;;;;;;;;;;;16.50;99.90;;;;;;4589445;19;20312;-24
2022/05/26 01:36:41;;;;;;;;;;;16.50;99.90;;;;;;4589418;19;19922;-24
2022/05/26 01:38:15;;;;;;;;;;;16.50;99.90;;;;;;4589355;19;20443;-24
2022/05/26 01:39:49;;;;;;;;;;;16.50;99.90;;;;;;4588698;19;20348;-24
2022/05/26 01:41:23;;;;;;;;;;;16.50;99.90;;;;;;4589394;19;19967;-24
2022/05/26 01:43:02;;;;;;;;;;;16.50;99.90;;;;;;4588947;19;19925;-24
2022/05/26 01:44:38;;;;;;;;;;;16.50;99.90;;;;;;4589703;19;19919;-24
2022/05/26 01:46:16;;;;;;;;;;;16.50;99.90;;;;;;4588842;19;19918;-24
2022/05/26 01:47:56;;;;;;;;;;;16.50;99.90;;;;;;4589027;19;19970;-24
2022/05/26 01:49:32;;;;;;;;;;;16.50;99.90;;;;;;4589030;19;19915;-24
2022/05/26 01:51:09;;;;;;;;;;;16.50;99.90;;;;;;4589214;19;19925;-25
2022/05/26 01:52:44;;;;;;;;;;;16.50;99.90;;;;;;4588940;19;19919;-24
2022/05/26 01:54:24;;;;;;;;;;;16.50;99.90;;;;;;4589130;19;20496;-24
2022/05/26 01:56:03;;;;;;;;;;;16.50;99.90;;;;;;4588807;19;20000;-24
2022/05/26 01:57:36;;;;;;;;;;;16.50;99.90;;;;;;4589162;19;19944;-24
2022/05/26 01:59:16;;;;;;;;;;;16.50;99.90;;;;;;4588953;19;19923;-25
2022/05/26 02:00:47;;;;;;;;;;;16.50;99.90;;;;;;4586820;19;19988;-25
2022/05/26 02:02:19;;;;;;;;;;;16.50;99.90;;;;;;4587734;19;19918;-24
2022/05/26 02:03:50;;;;;;;;;;;16.50;99.90;;;;;;4589142;19;20322;-24
2022/05/26 02:05:25;;;;;;;;;;;16.50;99.90;;;;;;4590389;19;20026;-24
2022/05/26 02:07:01;;;;;;;;;;;16.50;99.90;;;;;;4590250;19;19925;-24
2022/05/26 02:08:37;;;;;;;;;;;16.50;99.90;;;;;;4589479;19;19922;-24
2022/05/26 02:10:12;;;;;;;;;;;16.50;99.90;;;;;;4590673;19;19918;-24
2022/05/26 02:11:47;;;;;;;;;;;16.50;99.90;;;;;;4588759;19;20346;-25
2022/05/26 02:13:38;;;;;;;;;;;16.50;99.90;;;;;;4589489;19;19919;-24
2022/05/26 02:15:10;;;;;;;;;;;16.50;99.90;;;;;;4589415;19;19990;-24
2022/05/26 02:17:16;;;;;;;;;;;16.50;99.90;;;;;;4590181;19;19930;-24
2022/05/26 02:18:51;;;;;;;;;;;16.50;99.90;;;;;;4585602;19;20352;-24
2022/05/26 02:20:38;;;;;;;;;;;16.50;99.90;;;;;;4587715;19;19915;-24
2022/05/26 02:22:14;;;;;;;;;;;16.50;99.90;;;;;;4588604;19;19919;-25
2022/05/26 02:23:47;;;;;;;;;;;16.50;99.90;;;;;;4588264;19;19918;-24
2022/05/26 02:25:19;;;;;;;;;;;16.50;99.90;;;;;;4588385;19;19915;-24
2022/05/26 02:26:50;;;;;;;;;;;16.50;99.90;;;;;;4588467;19;19918;-24
2022/05/26 02:28:20;;;;;;;;;;;16.50;99.90;;;;;;4588382;19;19938;-25
2022/05/26 02:29:51;;;;;;;;;;;16.50;99.90;;;;;;4586724;19;19918;-23
2022/05/26 02:31:24;;;;;;;;;;;16.50;99.90;;;;;;4586950;19;20305;-24
2022/05/26 02:32:55;;;;;;;;;;;16.50;99.90;;;;;;4588712;19;19932;-24
2022/05/26 02:34:25;;;;;;;;;;;16.40;99.90;;;;;;4592832;19;19915;-24
2022/05/26 02:35:56;;;;;;;;;;;16.40;99.90;;;;;;4592820;19;19915;-24
2022/05/26 02:37:27;;;;;;;;;;;16.40;99.90;;;;;;4590891;19;19922;-24
2022/05/26 02:38:58;;;;;;;;;;;16.50;99.90;;;;;;4593180;19;19925;-24
2022/05/26 02:40:29;;;;;;;;;;;16.40;99.90;;;;;;4591731;19;19929;-24
2022/05/26 02:42:00;;;;;;;;;;;16.50;99.90;;;;;;4592793;19;19914;-24
2022/05/26 02:43:31;;;;;;;;;;;16.50;99.90;;;;;;4592829;19;19978;-24
2022/05/26 02:45:02;;;;;;;;;;;16.50;99.90;;;;;;4593823;19;20273;-24
2022/05/26 02:46:33;;;;;;;;;;;16.50;99.90;;;;;;4592071;19;19940;-24
2022/05/26 02:48:23;;;;;;;;;;;16.40;99.90;;;;;;4592398;19;19915;-24
2022/05/26 02:50:07;;;;;;;;;;;16.40;99.90;;;;;;4593754;19;19923;-24
2022/05/26 02:51:46;;;;;;;;;;;16.50;99.90;;;;;;4593682;19;19931;-24
2022/05/26 02:53:27;;;;;;;;;;;16.40;99.90;;;;;;4596320;19;19919;-24
2022/05/26 02:55:11;;;;;;;;;;;16.40;99.90;;;;;;4596206;19;19956;-24
2022/05/26 02:56:48;;;;;;;;;;;16.40;99.90;;;;;;4593799;19;19923;-24
2022/05/26 02:58:30;;;;;;;;;;;16.40;99.90;;;;;;4596040;19;19919;-23
2022/05/26 03:00:04;;;;;;;;;;;16.40;99.90;;;;;;4595960;19;19919;-24
2022/05/26 03:01:40;;;;;;;;;;;16.40;99.90;;;;;;4595052;19;19970;-23
2022/05/26 03:03:20;;;;;;;;;;;16.40;99.90;;;;;;4595215;19;19911;-24
2022/05/26 03:04:55;;;;;;;;;;;16.50;99.90;;;;;;4595999;19;19919;-24
2022/05/26 03:06:26;;;;;;;;;;;16.50;99.90;;;;;;4594857;19;20333;-24
2022/05/26 03:07:58;;;;;;;;;;;16.50;99.90;;;;;;4596679;19;19925;-24
2022/05/26 03:09:30;;;;;;;;;;;16.50;99.90;;;;;;4595377;19;19911;-24
2022/05/26 03:11:03;;;;;;;;;;;16.50;99.90;;;;;;4592194;19;19918;-23
2022/05/26 03:12:35;;;;;;;;;;;16.50;99.90;;;;;;4593157;19;19923;-24
2022/05/26 03:14:05;;;;;;;;;;;15.10;99.90;;;;;;4593949;19;20362;-23
2022/05/26 03:15:38;;;;;;;;;;;13.90;99.90;;;;;;4593837;19;19986;-23
2022/05/26 03:17:09;;;;;;;;;;;13.40;99.90;;;;;;4595522;19;19915;-23
2022/05/26 03:18:40;;;;;;;9.27;8.02;;;13.20;99.90;;;;;;4593790;19;19922;-22
2022/05/26 03:20:11;;;;;;;8.23;7.43;;;13.00;99.90;;;;;;4592232;19;20490;-23
2022/05/26 03:21:42;;;;;;;8.20;7.32;;;13.00;99.90;;;;;;4592839;19;20408;-24
2022/05/26 03:23:14;;;;;;;8.30;7.50;;;13.00;99.90;;;;;;4593239;19;20370;-24
2022/05/26 03:24:45;;;;;;;8.20;7.40;;;13.00;99.90;;;;;;4594033;19;20095;-22
2022/05/26 03:26:16;;;;;;;8.55;7.68;;;13.00;99.90;;;;;;4592027;19;20410;-23
2022/05/26 03:27:47;;;;;;;9.00;8.10;;;13.00;99.90;;;;;;4592800;19;20018;-22
2022/05/26 03:29:18;;;;;;;8.82;7.95;;;13.00;99.90;;;;;;4593099;19;20021;-22
2022/05/26 03:30:49;;;;;;;8.80;8.00;;;13.00;99.90;;;;;;4593321;19;20006;-23
2022/05/26 03:32:20;;;;;;;8.82;7.93;;;13.00;99.90;;;;;;4592826;19;20014;-23
2022/05/26 03:41:10;;;;;;;8.57;7.77;;;13.10;99.90;;;;;;4592987;19;20014;-23
2022/05/26 03:42:42;;;;;;;9.20;8.20;;;13.10;99.90;;;;;;4591630;19;20019;-22
2022/05/26 03:44:13;;;;;;;9.10;8.13;;;13.10;99.90;;;;;;4591644;19;20026;-23
2022/05/26 03:45:44;;;;;;;8.82;7.93;;;13.10;99.90;;;;;;4593137;19;20041;-24
2022/05/26 03:47:15;;;;;;;8.52;7.72;;;13.10;99.90;;;;;;4594641;19;20010;-23
2022/05/26 03:48:46;;;;;;;8.65;7.85;;;13.10;99.90;;;;;;4592167;19;20347;-23
2022/05/26 03:50:17;;;;;;;9.23;8.30;;;13.10;99.90;;;;;;4593078;19;20010;-23
2022/05/26 03:51:48;;;;;;;9.15;8.25;;;13.10;99.90;;;;;;4589369;19;20058;-23
2022/05/26 03:53:19;;;;;;;10.07;9.07;;;13.20;99.90;;;;;;4591568;19;20015;-23
2022/05/26 03:54:50;;;;;;;9.27;8.25;;;13.10;99.90;;;;;;4591201;19;20081;-23
2022/05/26 03:56:21;;;;;;;9.40;8.50;;;13.10;99.90;;;;;;4592319;19;20007;-23
2022/05/26 03:57:52;;;;;;;9.05;8.15;;;13.10;99.90;;;;;;4591514;19;20037;-22
2022/05/26 03:59:23;;;;;;;9.55;8.50;;;13.10;99.90;;;;;;4591165;19;20495;-23
2022/05/26 04:00:55;;;;;;;11.13;9.35;;;13.20;99.90;;;;;;4591272;19;20531;-22
2022/05/26 04:02:26;;;;;;;10.90;9.85;;;13.20;99.90;;;;;;4592501;19;20026;-22
2022/05/26 04:03:57;;;;;;;9.85;8.75;;;13.20;99.90;;;;;;4592473;19;20452;-23
2022/05/26 04:05:28;;;;;;;10.15;9.15;;;13.20;99.90;;;;;;4592994;19;20010;-23
2022/05/26 04:06:59;;;;;;;10.20;9.18;;;13.20;99.90;;;;;;4594539;19;20077;-23
2022/05/26 04:08:31;;;;;;;10.23;9.13;;;13.20;99.90;;;;;;4592696;19;20018;-23
2022/05/26 04:10:06;;;;;;;10.93;9.70;;;13.20;99.90;;;;;;4591640;19;20014;-23
2022/05/26 04:11:37;;;;;;;10.23;9.23;;;13.20;99.90;;;;;;4587886;19;20457;-23
2022/05/26 04:13:09;;;;;;;11.20;10.10;;;13.30;99.90;;;;;;4589779;19;20554;-22
2022/05/26 04:14:40;;;;;;;9.93;9.02;;;13.30;99.90;;;;;;4591312;19;20014;-22
2022/05/26 04:16:11;;;;;;;10.93;9.88;;;13.30;99.90;;;;;;4590868;19;20056;-22
2022/05/26 04:17:42;;;;;;;9.95;9.02;;;13.30;99.90;;;;;;4590918;19;20015;-23
2022/05/26 04:19:13;;;;;;;11.45;9.57;;;13.30;99.90;;;;;;4591806;19;20552;-22
2022/05/26 04:20:44;;;;;;;9.90;8.90;;;13.30;99.90;;;;;;4591621;19;20014;-22
2022/05/26 04:22:15;;;;;;;10.55;9.55;;;13.40;99.90;;;;;;4591548;19;20074;-23
2022/05/26 04:23:46;;;;;;;10.48;9.48;;;13.40;99.90;;;;;;4591311;19;20006;-23
2022/05/26 04:25:20;;;;;;;11.77;10.63;;;13.40;99.90;;;;;;4592113;19;20015;-22
2022/05/26 04:26:51;;;;;;;10.73;9.73;;;13.50;99.90;;;;;;4590496;19;20011;-24
2022/05/26 04:28:22;;;;;;;11.02;10.02;;;13.50;99.90;;;;;;4590517;19;20011;-22
2022/05/26 04:29:53;;;;;;;11.07;9.88;;;13.50;99.90;;;;;;4591817;19;20469;-22
2022/05/26 04:31:24;;;;;;;10.13;9.23;;;13.50;99.90;;;;;;4592008;19;20461;-23
2022/05/26 04:32:56;;;;;;;11.35;9.88;;;13.60;99.90;;;;;;4590437;19;20011;-23
2022/05/26 04:34:27;;;;;;;11.20;10.13;;;13.60;99.90;;;;;;4590493;19;20021;-22
2022/05/26 04:35:58;;;;;;;11.30;10.20;;;13.60;99.90;;;;;;4590486;19;20019;-22
2022/05/26 04:37:29;;;;;;;11.27;10.07;;;13.60;99.90;;;;;;4592067;19;20010;-22
2022/05/26 04:39:00;;;;;;;11.68;10.57;;;13.60;99.90;;;;;;4591469;19;20006;-23
2022/05/26 04:40:31;;;;;;;11.18;10.07;;;13.60;99.90;;;;;;4591436;19;20014;-23
2022/05/26 04:42:03;;;;;;;10.80;9.80;;;13.70;99.90;;;;;;4591887;19;20027;-23
2022/05/26 04:43:35;;;;;;;11.43;10.23;;;13.70;99.90;;;;;;4590510;19;20077;-22
2022/05/26 04:45:10;;;;;;;10.75;9.75;;;13.70;99.90;;;;;;4590385;19;20014;-23
2022/05/26 04:46:41;;;;;;;11.13;10.13;;;13.70;99.90;;;;;;4590385;19;20018;-23
2022/05/26 04:48:13;;;;;;;9.88;8.88;;;13.70;99.90;;;;;;4591157;19;20018;-22
2022/05/26 04:49:45;;;;;;;11.00;9.93;;;13.80;99.90;;;;;;4591203;19;20038;-23
2022/05/26 04:51:18;;;;;;;11.82;10.63;;;13.80;99.90;;;;;;4590880;19;20473;-23
2022/05/26 04:52:49;;;;;;;9.87;8.87;;;13.80;99.90;;;;;;4590114;19;20361;-23
2022/05/26 04:54:20;;;;;;;10.88;9.77;;;13.90;99.90;;;;;;4591130;19;20002;-22
2022/05/26 04:55:57;;;;;;;10.35;9.35;;;13.90;99.90;;;;;;4590993;19;20546;-23
2022/05/26 04:57:28;;;;;;;9.67;8.67;;;13.90;99.90;;;;;;4588886;19;20017;-22
2022/05/26 04:58:58;;;;;;;10.38;9.38;;;13.90;99.90;;;;;;4590850;19;20006;-23
2022/05/26 05:00:29;;;;;;;9.90;8.95;;;14.00;99.90;;;;;;4590544;19;20002;-23
2022/05/26 05:02:01;;;;;;;10.75;9.70;;;14.00;99.90;;;;;;4590594;19;20031;-22
2022/05/26 05:03:32;;;;;;;10.40;9.40;;;14.00;99.90;;;;;;4591580;19;20007;-23
2022/05/26 05:05:04;;;;;;;10.82;9.82;;;14.10;99.90;;;;;;4591452;19;20007;-23
2022/05/26 05:06:35;;;;;;;9.07;8.17;;;14.20;99.90;;;;;;4590470;19;20014;-23
2022/05/26 05:08:06;;;;;;;10.95;9.85;;;14.20;99.90;;;;;;4589488;19;20109;-23
2022/05/26 05:09:38;;;;;;;9.27;8.38;;;14.20;99.90;;;;;;4590043;19;20014;-23
2022/05/26 05:11:10;;;;;;;9.10;8.27;;;14.20;99.90;;;;;;4591899;19;20117;-23
2022/05/26 05:12:41;;;;;;;9.43;8.52;;;14.30;99.90;;;;;;4591500;19;20516;-23
2022/05/26 05:14:12;;;;;;;9.05;8.15;;;14.30;99.90;;;;;;4589781;19;20481;-24
2022/05/26 05:16:10;;;;;;;9.65;8.75;;;14.30;99.90;;;;;;4590145;19;20022;-23
2022/05/26 05:17:51;;;;;;;9.53;8.53;;;14.30;99.90;;;;;;4612741;19;20672;-25
2022/05/26 05:19:23;;;;;;;10.38;9.38;;;14.30;99.90;;;;;;4613528;19;20014;-24
2022/05/26 05:20:55;;;;;;;9.38;8.48;;;14.30;99.90;;;;;;4612299;19;20468;-25
2022/05/26 05:22:27;;;;;;;;;;;14.30;99.90;;;;;;4611698;19;20033;-27
2022/05/26 05:23:59;;;;;;;;;;;14.30;99.90;;;;;;4611203;19;19938;-26
2022/05/26 05:25:37;;;;;;;9.90;8.90;;;14.30;99.90;;;;;;4610771;19;19924;-26
2022/05/26 05:27:34;;;;;;;8.37;7.60;;;14.30;99.90;;;;;;4611263;19;20101;-24
2022/05/26 05:29:08;;;;;;;8.93;8.10;;;14.40;99.90;;;;;;4610295;19;20034;-24
2022/05/26 05:30:55;;;;;;;10.27;9.27;;;14.40;99.90;;;;;;4610100;19;20022;-28
2022/05/26 05:32:50;;;;;;;10.40;9.40;;;14.40;99.90;;;;;;4610912;19;20361;-25
2022/05/26 05:34:25;;;;;;;9.47;8.47;;;14.50;99.90;;;;;;4609445;19;20010;-25
2022/05/26 05:36:04;;;;;;;9.03;8.23;;;14.50;99.90;;;;;;4610011;19;20022;-27
2022/05/26 05:37:35;;;;;;;9.87;8.87;;;14.50;99.90;;;;;;4607376;19;20018;-24
2022/05/26 05:39:06;;;;;;;10.43;9.40;;;14.60;99.90;;;;;;4608594;19;20018;-27
2022/05/26 05:40:37;;;;;;;9.93;8.93;;;14.60;99.90;;;;;;4608503;19;20069;-29
2022/05/26 05:42:09;;;;;;;10.85;9.75;;;14.60;99.90;;;;;;4608503;19;20006;-25
2022/05/26 05:43:40;;;;;;;9.52;8.52;;;14.60;99.90;;;;;;4607869;19;20014;-27
2022/05/26 05:45:11;;;;;;;9.25;8.35;;;14.50;99.90;;;;;;4610349;19;20044;-25
2022/05/26 05:46:53;;;;;;;9.93;8.75;;;14.60;99.90;;;;;;4609863;19;20010;-25
2022/05/26 05:48:25;;;;;;;9.33;8.43;;;14.50;99.90;;;;;;4610963;19;20007;-23
2022/05/26 05:49:56;;;;;;;10.95;9.85;;;14.60;99.90;;;;;;4609711;19;20006;-26
2022/05/26 05:51:27;;;;;;;9.45;8.57;;;14.60;99.90;;;;;;4609414;19;20527;-24
2022/05/26 05:52:58;;;;;;;8.82;8.00;;;14.70;99.90;;;;;;4608782;19;20094;-27
2022/05/26 05:54:31;;;;;;;9.93;8.93;;;14.70;99.90;;;;;;4609027;19;20098;-25
2022/05/26 05:56:02;;;;;;;;;;;14.80;99.90;;;;;;4608881;19;20014;-30
2022/05/26 05:57:33;;;;;;;;;;;14.80;99.90;;;;;;4607092;19;20314;-25
2022/05/26 05:59:03;;;;;;;;;;;14.80;99.90;;;;;;4609728;19;19986;-25
2022/05/26 06:00:35;;;;;;;;;;;14.80;99.90;;;;;;4615910;19;19914;-24
2022/05/26 06:02:06;;;;;;;;;;;14.80;99.90;;;;;;4618154;19;20372;-24
2022/05/26 06:03:38;;;;;;;;;;;14.80;99.90;;;;;;4617929;19;19922;-25
2022/05/26 06:05:10;;;;;;;;;;;14.80;99.90;;;;;;4617756;19;19910;-25
2022/05/26 06:06:42;;;;;;;;;;;14.80;99.90;;;;;;4616972;19;19939;-24
2022/05/26 06:08:13;;;;;;;;;;;14.90;99.90;;;;;;4616551;19;19911;-25
2022/05/26 06:09:44;;;;;;;;;;;14.80;99.90;;;;;;4616389;19;20011;-26
2022/05/26 06:11:15;;;;;;;;;;;14.90;99.90;;;;;;4616597;19;19974;-25
2022/05/26 06:12:46;;;;;;;;;;;14.90;99.90;;;;;;4617878;19;19918;-26
2022/05/26 06:14:17;;;;;;;;;;;14.90;99.90;;;;;;4616514;19;19918;-28
2022/05/26 06:15:48;;;;;;;;;;;15.00;99.90;;;;;;4620221;19;20274;-26
2022/05/26 06:17:20;;;;;;;;;;;14.90;99.90;;;;;;4618458;19;19926;-26
2022/05/26 06:18:51;;;;;;;;;;;15.00;99.90;;;;;;4619753;19;19974;-26
2022/05/26 06:20:22;;;;;;;;;;;15.00;99.90;;;;;;4619068;19;20280;-25
2022/05/26 06:21:53;;;;;;;;;;;15.00;99.90;;;;;;4619558;19;19978;-24
2022/05/26 06:23:24;;;;;;;;;;;15.00;99.90;;;;;;4618358;19;19922;-31
2022/05/26 06:24:55;;;;;;;;;;;15.00;99.90;;;;;;4617969;19;19922;-24
2022/05/26 06:26:28;;;;;;;;;;;15.10;99.90;;;;;;4617638;19;19986;-25
2022/05/26 06:29:49;;;;;;;;;;;15.10;99.90;;;;;;4599847;19;19922;-25
2022/05/26 06:31:22;;;;;;;;;;;15.20;99.90;;;;;;4597059;19;20361;-24
2022/05/26 06:38:23;;;;;;;;;;;15.30;99.90;;;;;;4601819;19;19941;-25
2022/05/26 06:39:55;;;;;;;;;;;15.30;99.90;;;;;;4600953;19;19914;-24
2022/05/26 06:43:16;;;;;;;;;;;15.40;99.90;;;;;;4601802;19;19974;-24
2022/05/26 06:44:46;;;;;;;;;;;15.40;99.90;;;;;;4602299;19;19923;-25
2022/05/26 06:46:18;;;;;;;;;;;15.50;99.90;;;;;;4600798;19;19948;-25
2022/05/26 06:47:49;;;;;;;;;;;15.50;99.90;;;;;;4600909;19;20348;-26
2022/05/26 06:49:20;;;;;;;;;;;15.50;99.90;;;;;;4601521;19;19945;-24
2022/05/26 06:50:51;;;;;;;;;;;15.50;99.90;;;;;;4600654;19;19918;-25
2022/05/26 06:52:22;;;;;;;;;;;15.50;99.90;;;;;;4600910;19;19918;-25
2022/05/26 06:53:53;;;;;;;;;;;15.50;99.90;;;;;;4600715;19;19918;-25
2022/05/26 06:55:24;;;;;;;;;;;15.50;99.90;;;;;;4600883;19;20378;-25
2022/05/26 06:56:55;;;;;;;;;;;15.60;99.90;;;;;;4599972;19;19919;-25
2022/05/26 06:58:27;;;;;;;;;;;15.60;99.90;;;;;;4600919;19;19926;-25
2022/05/26 06:59:57;;;;;;;;;;;15.60;99.90;;;;;;4601198;19;20400;-24
2022/05/26 07:01:29;;;;;;;;;;;15.60;99.90;;;;;;4601272;19;20326;-25
2022/05/26 07:03:00;;;;;;;;;;;15.60;99.90;;;;;;4600535;19;19930;-24
2022/05/26 07:04:31;;;;;;;;;;;15.70;99.90;;;;;;4601108;19;20341;-25
2022/05/26 07:06:01;;;;;;;;;;;15.70;99.90;;;;;;4601284;19;19914;-27
2022/05/26 07:07:35;;;;;;;;;;;15.70;99.90;;;;;;4600745;19;20259;-24
2022/05/26 07:09:05;;;;;;;;;;;15.80;99.90;;;;;;4600650;19;19911;-27
2022/05/26 07:10:37;;;;;;;;;;;15.80;99.90;;;;;;4599610;19;19919;-24
2022/05/26 07:12:09;;;;;;;;;;;15.80;99.90;;;;;;4600910;19;19919;-24
2022/05/26 07:13:40;;;;;;;;;;;15.80;99.90;;;;;;4600974;19;19928;-25
2022/05/26 07:15:11;;;;;;;;;;;15.80;99.90;;;;;;4600552;19;19919;-25
2022/05/26 07:16:44;;;;;;;;;;;15.80;99.90;;;;;;4599948;19;20254;-25
2022/05/26 07:18:14;;;;;;;;;;;15.90;99.90;;;;;;4601182;19;19915;-25
2022/05/26 07:19:46;;;;;;;;;;;15.90;99.90;;;;;;4600491;19;19924;-25
2022/05/26 07:21:17;;;;;;;;;;;16.00;99.90;;;;;;4600301;19;19915;-25
2022/05/26 07:22:48;;;;;;;;;;;16.00;99.90;;;;;;4600826;19;19926;-25
2022/05/26 07:24:19;;;;;;;;;;;16.00;99.90;;;;;;4600810;19;19992;-27
2022/05/26 07:25:50;;;;;;;;;;;16.10;99.90;;;;;;4600133;19;19919;-25
2022/05/26 07:27:21;;;;;;;;;;;16.10;99.90;;;;;;4600329;19;19918;-24
2022/05/26 07:28:52;;;;;;;;;;;16.10;99.90;;;;;;4600582;19;19989;-25
2022/05/26 07:30:23;;;;;;;;;;;16.10;99.90;;;;;;4600673;19;19914;-26
2022/05/26 07:31:54;;;;;;;;;;;16.10;99.90;;;;;;4600263;19;20336;-24
2022/05/26 07:33:25;;;;;;;;;;;16.10;99.90;;;;;;4600454;19;20294;-27
2022/05/26 07:34:56;;;;;;;;;;;16.20;99.90;;;;;;4600933;19;19918;-24
2022/05/26 07:41:57;;;;;;;;;;;16.10;99.90;;;;;;4599869;19;20290;-25
2022/05/26 07:43:29;;;;;;;;;;;16.10;99.90;;;;;;4599040;19;19986;-27
2022/05/26 07:45:00;;;;;;;;;;;16.20;99.90;;;;;;4599781;19;19972;-27
2022/05/26 07:46:31;;;;;;;;;;;16.20;99.90;;;;;;4599645;19;19945;-25
2022/05/26 07:48:03;;;;;;;;;;;16.20;99.90;;;;;;4599766;19;20333;-24
2022/05/26 07:49:34;;;;;;;;;;;16.30;99.90;;;;;;4601040;19;19911;-24
2022/05/26 07:51:05;;;;;;;;;;;16.30;99.90;;;;;;4600560;19;19924;-25
2022/05/26 07:52:36;;;;;;;;;;;16.30;99.90;;;;;;4600256;19;19914;-28
2022/05/26 07:54:07;;;;;;;;;;;16.30;99.90;;;;;;4597667;19;20286;-28
2022/05/26 07:55:42;;;;;;;;;;;16.40;99.90;;;;;;4599936;19;19910;-27
2022/05/26 07:57:18;;;;;;;;;;;16.40;99.90;;;;;;4596172;19;20348;-27
2022/05/26 07:58:48;;;;;;;;;;;16.50;99.90;;;;;;4598869;19;19921;-29
2022/05/26 08:00:19;;;;;;;;;;;16.40;99.90;;;;;;4599232;19;19918;-25
2022/05/26 08:01:51;;;;;;;;;;;16.50;99.90;;;;;;4598943;19;19919;-26
2022/05/26 08:03:22;;;;;;;;;;;16.50;99.90;;;;;;4597136;19;19927;-25
2022/05/26 08:04:53;;;;;;;;;;;16.50;99.90;;;;;;4598160;19;19922;-26
2022/05/26 08:06:24;;;;;;;;;;;16.50;99.90;;;;;;4599015;19;19914;-26
2022/05/26 08:07:56;;;;;;;;;;;16.50;99.90;;;;;;4599985;19;19921;-25
2022/05/26 08:09:27;;;;;;;;;;;16.50;99.90;;;;;;4599259;19;19984;-28
2022/05/26 08:10:58;;;;;;;;;;;16.50;99.90;;;;;;4597875;19;20293;-26
2022/05/26 08:12:29;;;;;;;;;;;16.50;99.90;;;;;;4599142;19;20280;-28
2022/05/26 08:14:01;;;;;;;;;;;16.50;99.90;;;;;;4599308;19;19910;-25
2022/05/26 08:15:32;;;;;;;;;;;16.50;99.90;;;;;;4599586;19;19935;-25
2022/05/26 08:17:03;;;;;;;;;;;16.50;99.90;;;;;;4598831;19;20360;-26
2022/05/26 08:18:34;;;;;;;;;;;16.60;99.90;;;;;;4600122;19;19982;-25
2022/05/26 08:20:05;;;;;;;;;;;16.60;99.90;;;;;;4599657;19;19929;-25
2022/05/26 08:21:36;;;;;;;;;;;16.60;99.90;;;;;;4599552;19;19919;-27
2022/05/26 08:23:07;;;;;;;;;;;16.60;99.90;;;;;;4599959;19;20317;-24
2022/05/26 08:24:38;;;;;;;;;;;16.60;99.90;;;;;;4600162;19;19911;-25
2022/05/26 08:26:09;;;;;;;;;;;16.60;99.90;;;;;;4599289;19;19925;-24
2022/05/26 08:27:40;;;;;;;;;;;16.70;99.90;;;;;;4599158;19;20308;-25
2022/05/26 08:29:11;;;;;;;;;;;16.60;99.90;;;;;;4599141;19;20262;-25
2022/05/26 08:30:42;;;;;;;;;;;16.60;99.90;;;;;;4600300;19;20261;-24
2022/05/26 08:32:16;;;;;;;;;;;16.70;99.90;;;;;;4599528;19;19978;-24
2022/05/26 08:33:47;;;;;;;;;;;16.70;99.90;;;;;;4599211;19;19978;-26
2022/05/26 08:35:18;;;;;;;;;;;16.70;99.90;;;;;;4599688;19;19914;-24
2022/05/26 08:36:48;;;;;;;;;;;16.60;99.90;;;;;;4598935;19;19923;-25
2022/05/26 08:38:20;;;;;;;;;;;16.60;99.90;;;;;;4599188;19;20298;-28
2022/05/26 08:39:50;;;;;;;;;;;16.60;99.90;;;;;;4599634;19;19926;-24
2022/05/26 08:41:26;;;;;;;;;;;16.50;99.90;;;;;;4599227;19;19986;-28
2022/05/26 08:42:56;;;;;;;;;;;16.50;99.90;;;;;;4598130;19;19910;-26
2022/05/26 08:44:36;;;;;;;;;;;16.50;99.90;;;;;;4598948;19;19939;-24
2022/05/26 08:46:09;;;;;;;;;;;16.50;99.90;;;;;;4598378;19;19952;-23
2022/05/26 08:47:41;;;;;;;;;;;16.50;99.90;;;;;;4599166;19;19982;-25
2022/05/26 08:49:14;;;;;;;;;;;16.50;99.90;;;;;;4597656;19;19917;-26
2022/05/26 08:50:45;;;;;;;;;;;16.60;99.90;;;;;;4598445;19;20367;-25
2022/05/26 08:52:19;;;;;;;;;;;16.60;99.90;;;;;;4597382;19;19915;-28
2022/05/26 08:53:50;;;;;;;;;;;16.70;99.90;;;;;;4598296;19;19910;-24
2022/05/26 08:55:32;;;;;;;;;;;16.70;99.90;;;;;;4598334;19;20357;-26
2022/05/26 08:57:07;;;;;;;;;;;16.70;99.90;;;;;;4597047;19;19926;-24
2022/05/26 08:58:47;;;;;;;;;;;16.60;99.90;;;;;;4597511;19;19918;-25
2022/05/26 09:00:20;;;;;;;;;;;16.60;99.90;;;;;;4598937;19;20241;-26
2022/05/26 09:01:50;;;;;;;;;;;16.70;99.90;;;;;;4598716;19;19967;-26
2022/05/26 09:03:23;;;;;;;;;;;16.70;99.90;;;;;;4597800;19;19918;-26
2022/05/26 09:04:55;;;;;;;;;;;16.70;99.90;;;;;;4598544;19;20322;-24